createdAt,value
2018-01-12T00:00:53.471Z,62.80
2018-01-12T00:01:53.485Z,49.40
2018-01-12T00:02:53.499Z,57.50
2018-01-12T00:03:53.523Z,47.30
2018-01-12T00:04:53.536Z,47.40
2018-01-12T00:05:53.556Z,45.90
2018-01-12T00:06:53.566Z,48.90
2018-01-12T00:07:53.586Z,50.60
2018-01-12T00:08:53.602Z,90.90
2018-01-12T00:09:53.617Z,85.70
2018-01-12T00:10:53.640Z,70.40
2018-01-12T00:11:53.651Z,54.70
2018-01-12T00:12:53.670Z,63.80
2018-01-12T00:13:53.686Z,86.70
2018-01-12T00:14:53.704Z,59.90
2018-01-12T00:15:53.716Z,59.40
2018-01-12T00:16:53.732Z,64.90
2018-01-12T00:17:53.752Z,54.00
2018-01-12T00:18:53.768Z,69.00
2018-01-12T00:19:53.784Z,94.40
2018-01-12T00:20:53.804Z,64.60
2018-01-12T00:21:53.820Z,94.80
2018-01-12T00:22:53.836Z,87.00
2018-01-12T00:23:53.850Z,64.20
2018-01-12T00:24:53.867Z,58.40
2018-01-12T00:25:53.882Z,65.60
2018-01-12T00:26:53.904Z,60.30
2018-01-12T00:27:53.912Z,64.70
2018-01-12T00:28:53.932Z,76.60
2018-01-12T00:29:53.949Z,73.90
2018-01-12T00:30:53.977Z,64.90
2018-01-12T00:31:54.011Z,66.00
2018-01-12T00:32:54.000Z,98.10
2018-01-12T00:33:54.014Z,112.90
2018-01-12T00:34:54.033Z,106.20
2018-01-12T00:35:54.047Z,105.70
2018-01-12T00:36:54.069Z,120.30
2018-01-12T00:37:54.079Z,107.00
2018-01-12T00:38:54.101Z,125.60
2018-01-12T00:39:54.113Z,71.00
2018-01-12T00:40:54.128Z,86.50
2018-01-12T00:41:54.153Z,67.60
2018-01-12T00:42:54.159Z,87.40
2018-01-12T00:43:54.182Z,126.00
2018-01-12T00:44:54.198Z,158.80
2018-01-12T00:45:54.214Z,88.40
2018-01-12T00:46:54.232Z,101.10
2018-01-12T00:47:54.246Z,95.60
2018-01-12T00:48:54.265Z,173.10
2018-01-12T00:49:54.280Z,93.90
2018-01-12T00:50:54.295Z,64.70
2018-01-12T00:51:54.313Z,74.70
2018-01-12T00:52:54.325Z,79.20
2018-01-12T00:53:54.340Z,95.60
2018-01-12T00:54:54.363Z,89.50
2018-01-12T00:55:54.374Z,99.90
2018-01-12T00:56:54.394Z,110.00
2018-01-12T00:57:54.411Z,157.70
2018-01-12T00:58:54.427Z,74.40
2018-01-12T00:59:54.446Z,142.60
2018-01-12T01:00:54.460Z,123.90
2018-01-12T01:01:54.476Z,117.50
2018-01-12T01:02:54.498Z,135.30
2018-01-12T01:03:54.511Z,115.70
2018-01-12T01:04:54.526Z,119.80
2018-01-12T01:05:54.543Z,98.70
2018-01-12T01:06:54.562Z,117.20
2018-01-12T01:07:54.580Z,106.90
2018-01-12T01:08:54.592Z,108.00
2018-01-12T01:09:54.609Z,83.80
2018-01-12T01:10:54.624Z,90.30
2018-01-12T01:11:54.644Z,117.80
2018-01-12T01:12:54.660Z,84.90
2018-01-12T01:13:54.673Z,120.80
2018-01-12T01:14:54.690Z,85.40
2018-01-12T01:15:54.707Z,81.40
2018-01-12T01:16:54.724Z,80.30
2018-01-12T01:17:54.740Z,110.50
2018-01-12T01:18:54.758Z,95.60
2018-01-12T01:19:54.768Z,98.00
2018-01-12T01:20:54.789Z,75.60
2018-01-12T01:21:54.805Z,79.50
2018-01-12T01:22:54.826Z,87.10
2018-01-12T01:23:54.842Z,88.50
2018-01-12T01:24:54.855Z,67.60
2018-01-12T01:25:54.872Z,103.50
2018-01-12T01:26:54.889Z,84.30
2018-01-12T01:27:54.905Z,87.70
2018-01-12T01:28:54.924Z,98.70
2018-01-12T01:29:54.938Z,77.60
2018-01-12T01:30:54.954Z,82.30
2018-01-12T01:31:54.970Z,91.00
2018-01-12T01:32:54.986Z,97.70
2018-01-12T01:33:55.005Z,88.00
2018-01-12T01:34:55.021Z,91.30
2018-01-12T01:35:55.033Z,89.20
2018-01-12T01:36:55.054Z,70.00
2018-01-12T01:37:55.071Z,79.10
2018-01-12T01:38:55.086Z,90.80
2018-01-12T01:39:55.103Z,76.90
2018-01-12T01:40:55.118Z,54.20
2018-01-12T01:41:55.133Z,74.10
2018-01-12T01:42:55.150Z,70.90
2018-01-12T01:43:55.166Z,73.30
2018-01-12T01:44:55.184Z,66.70
2018-01-12T01:45:55.200Z,57.50
2018-01-12T01:46:55.220Z,56.20
2018-01-12T01:47:55.236Z,71.00
2018-01-12T01:48:55.250Z,54.50
2018-01-12T01:49:55.268Z,72.80
2018-01-12T01:50:55.283Z,50.20
2018-01-12T01:51:55.301Z,61.50
2018-01-12T01:52:55.322Z,69.40
2018-01-12T01:53:55.329Z,56.50
2018-01-12T01:54:55.341Z,80.90
2018-01-12T01:55:55.363Z,58.80
2018-01-12T01:56:55.382Z,55.00
2018-01-12T01:57:55.396Z,66.10
2018-01-12T01:58:55.413Z,56.70
2018-01-12T01:59:55.430Z,61.70
2018-01-12T02:00:55.448Z,54.70
2018-01-12T02:01:55.462Z,55.80
2018-01-12T02:02:55.479Z,63.50
2018-01-12T02:03:55.495Z,72.20
2018-01-12T02:04:55.512Z,60.70
2018-01-12T02:05:55.530Z,62.60
2018-01-12T02:06:55.546Z,56.10
2018-01-12T02:07:55.560Z,60.60
2018-01-12T02:08:55.579Z,61.70
2018-01-12T02:09:55.592Z,46.20
2018-01-12T02:10:55.613Z,42.90
2018-01-12T02:11:55.624Z,60.20
2018-01-12T02:12:55.642Z,48.10
2018-01-12T02:13:55.658Z,52.90
2018-01-12T02:14:55.676Z,40.90
2018-01-12T02:15:55.692Z,53.00
2018-01-12T02:16:55.705Z,63.20
2018-01-12T02:17:55.723Z,58.90
2018-01-12T02:18:55.744Z,78.00
2018-01-12T02:19:55.756Z,49.10
2018-01-12T02:20:55.772Z,48.30
2018-01-12T02:21:55.787Z,56.30
2018-01-12T02:22:55.804Z,49.20
2018-01-12T02:23:55.821Z,44.70
2018-01-12T02:24:55.838Z,48.70
2018-01-12T02:25:55.853Z,45.70
2018-01-12T02:26:55.869Z,51.10
2018-01-12T02:27:55.884Z,46.20
2018-01-12T02:28:55.933Z,48.00
2018-01-12T02:29:55.918Z,45.70
2018-01-12T02:30:55.933Z,64.90
2018-01-12T02:31:55.956Z,54.10
2018-01-12T02:32:55.967Z,69.80
2018-01-12T02:33:55.980Z,52.40
2018-01-12T02:34:55.999Z,70.10
2018-01-12T02:35:56.010Z,86.70
2018-01-12T02:36:56.040Z,85.50
2018-01-12T02:37:56.048Z,66.30
2018-01-12T02:38:56.064Z,82.90
2018-01-12T02:39:56.078Z,77.00
2018-01-12T02:40:56.095Z,57.50
2018-01-12T02:41:56.115Z,74.80
2018-01-12T02:42:56.127Z,73.00
2018-01-12T02:43:56.143Z,91.50
2018-01-12T02:44:56.165Z,77.70
2018-01-12T02:45:56.174Z,74.10
2018-01-12T02:46:56.193Z,69.90
2018-01-12T02:47:56.210Z,67.80
2018-01-12T02:48:56.227Z,78.40
2018-01-12T02:49:56.241Z,71.50
2018-01-12T02:50:56.256Z,66.50
2018-01-12T02:51:56.274Z,75.60
2018-01-12T02:52:56.289Z,73.40
2018-01-12T02:53:56.308Z,66.10
2018-01-12T02:54:56.319Z,49.50
2018-01-12T02:55:56.340Z,47.40
2018-01-12T02:56:56.350Z,57.20
2018-01-12T02:57:56.370Z,50.20
2018-01-12T02:58:56.385Z,56.40
2018-01-12T02:59:56.400Z,48.30
2018-01-12T03:00:56.422Z,47.90
2018-01-12T03:01:56.433Z,48.70
2018-01-12T03:02:56.447Z,48.80
2018-01-12T03:03:56.466Z,47.80
2018-01-12T03:04:56.487Z,49.80
2018-01-12T03:05:56.494Z,44.40
2018-01-12T03:06:56.514Z,48.10
2018-01-12T03:07:56.531Z,48.90
2018-01-12T03:08:56.547Z,46.20
2018-01-12T03:09:56.563Z,45.10
2018-01-12T03:10:56.578Z,47.30
2018-01-12T03:11:56.597Z,58.90
2018-01-12T03:12:56.615Z,48.40
2018-01-12T03:13:56.626Z,49.90
2018-01-12T03:14:56.644Z,49.80
2018-01-12T03:15:56.664Z,49.40
2018-01-12T03:16:56.679Z,49.50
2018-01-12T03:17:56.689Z,55.20
2018-01-12T03:18:56.707Z,50.00
2018-01-12T03:19:56.728Z,50.60
2018-01-12T03:20:56.741Z,52.60
2018-01-12T03:21:56.757Z,50.50
2018-01-12T03:22:56.773Z,64.80
2018-01-12T03:23:56.790Z,65.20
2018-01-12T03:24:56.807Z,57.90
2018-01-12T03:25:56.822Z,63.40
2018-01-12T03:26:56.844Z,52.10
2018-01-12T03:27:56.854Z,54.10
2018-01-12T03:28:56.872Z,60.00
2018-01-12T03:29:56.887Z,54.00
2018-01-12T03:30:56.984Z,54.20
2018-01-12T03:31:56.921Z,47.40
2018-01-12T03:32:56.937Z,54.40
2018-01-12T03:33:56.953Z,60.20
2018-01-12T03:34:56.969Z,61.40
2018-01-12T03:35:56.986Z,57.00
2018-01-12T03:36:57.003Z,56.00
2018-01-12T03:37:57.018Z,73.10
2018-01-12T03:38:57.031Z,52.00
2018-01-12T03:39:57.054Z,53.60
2018-01-12T03:40:57.066Z,60.30
2018-01-12T03:41:57.084Z,55.70
2018-01-12T03:42:57.103Z,52.70
2018-01-12T03:43:57.112Z,50.60
2018-01-12T03:44:57.136Z,54.50
2018-01-12T03:45:57.156Z,63.20
2018-01-12T03:46:57.180Z,55.00
2018-01-12T03:47:57.188Z,54.50
2018-01-12T03:48:57.195Z,52.80
2018-01-12T03:49:57.213Z,58.80
2018-01-12T03:50:57.229Z,53.20
2018-01-12T03:51:57.245Z,53.00
2018-01-12T03:52:57.268Z,48.40
2018-01-12T03:53:57.274Z,52.40
2018-01-12T03:54:57.297Z,65.70
2018-01-12T03:55:57.311Z,62.00
2018-01-12T03:56:57.335Z,57.60
2018-01-12T03:57:57.344Z,60.90
2018-01-12T03:58:57.358Z,59.70
2018-01-12T03:59:57.378Z,51.60
2018-01-12T04:00:57.391Z,60.30
2018-01-12T04:01:57.415Z,60.10
2018-01-12T04:02:57.428Z,56.10
2018-01-12T04:03:57.438Z,55.20
2018-01-12T04:04:57.460Z,59.10
2018-01-12T04:05:57.476Z,54.50
2018-01-12T04:06:57.496Z,62.50
2018-01-12T04:07:57.508Z,53.30
2018-01-12T04:08:57.526Z,56.80
2018-01-12T04:09:57.539Z,54.10
2018-01-12T04:10:57.581Z,63.80
2018-01-12T04:11:57.568Z,105.20
2018-01-12T04:12:57.587Z,55.20
2018-01-12T04:13:57.604Z,54.00
2018-01-12T04:14:57.625Z,56.50
2018-01-12T04:15:57.640Z,60.00
2018-01-12T04:16:57.658Z,85.90
2018-01-12T04:17:57.673Z,66.00
2018-01-12T04:18:57.693Z,57.80
2018-01-12T04:19:57.703Z,55.90
2018-01-12T04:20:57.728Z,81.70
2018-01-12T04:21:57.741Z,66.70
2018-01-12T04:22:57.753Z,66.60
2018-01-12T04:23:57.767Z,55.70
2018-01-12T04:24:57.785Z,92.60
2018-01-12T04:25:57.802Z,67.00
2018-01-12T04:26:57.826Z,75.30
2018-01-12T04:27:57.836Z,91.70
2018-01-12T04:28:57.853Z,73.60
2018-01-12T04:29:57.870Z,53.00
2018-01-12T04:30:57.882Z,52.00
2018-01-12T04:31:57.901Z,55.50
2018-01-12T04:32:57.915Z,63.60
2018-01-12T04:33:57.934Z,58.50
2018-01-12T04:34:57.949Z,66.00
2018-01-12T04:35:57.969Z,61.30
2018-01-12T04:36:57.985Z,62.20
2018-01-12T04:37:57.998Z,64.90
2018-01-12T04:38:58.017Z,67.40
2018-01-12T04:39:58.032Z,65.20
2018-01-12T04:40:58.051Z,58.10
2018-01-12T04:41:58.065Z,61.10
2018-01-12T04:42:58.083Z,56.60
2018-01-12T04:43:58.098Z,55.20
2018-01-12T04:44:58.116Z,53.30
2018-01-12T04:45:58.130Z,57.30
2018-01-12T04:46:58.146Z,65.40
2018-01-12T04:47:58.166Z,60.70
2018-01-12T04:48:58.181Z,90.80
2018-01-12T04:49:58.194Z,76.40
2018-01-12T04:50:58.214Z,76.70
2018-01-12T04:51:58.225Z,61.80
2018-01-12T04:52:58.243Z,61.30
2018-01-12T04:53:58.260Z,56.60
2018-01-12T04:54:58.275Z,53.20
2018-01-12T04:55:58.295Z,50.70
2018-01-12T04:56:58.311Z,49.70
2018-01-12T04:57:58.322Z,48.20
2018-01-12T04:58:58.343Z,51.50
2018-01-12T04:59:58.357Z,48.90
2018-01-12T05:00:58.375Z,50.00
2018-01-12T05:01:58.388Z,50.60
2018-01-12T05:02:58.407Z,55.20
2018-01-12T05:03:58.424Z,50.70
2018-01-12T05:04:58.440Z,48.40
2018-01-12T05:05:58.457Z,50.20
2018-01-12T05:06:58.475Z,66.20
2018-01-12T05:07:58.490Z,53.00
2018-01-12T05:08:58.509Z,50.80
2018-01-12T05:09:58.524Z,61.70
2018-01-12T05:10:58.540Z,49.20
2018-01-12T05:11:58.552Z,50.90
2018-01-12T05:12:58.571Z,55.20
2018-01-12T05:13:58.586Z,52.50
2018-01-12T05:14:58.605Z,54.90
2018-01-12T05:15:58.623Z,61.00
2018-01-12T05:16:58.639Z,60.60
2018-01-12T05:17:58.654Z,57.50
2018-01-12T05:18:58.672Z,59.00
2018-01-12T05:19:58.688Z,58.60
2018-01-12T05:20:58.705Z,54.70
2018-01-12T05:21:58.722Z,60.40
2018-01-12T05:22:58.737Z,64.30
2018-01-12T05:23:58.751Z,63.60
2018-01-12T05:24:58.764Z,70.00
2018-01-12T05:25:58.931Z,65.60
2018-01-12T05:26:58.802Z,63.90
2018-01-12T05:27:58.818Z,64.10
2018-01-12T05:28:58.838Z,60.90
2018-01-12T05:29:58.849Z,63.80
2018-01-12T05:30:58.869Z,54.00
2018-01-12T05:31:58.881Z,49.40
2018-01-12T05:32:58.898Z,52.00
2018-01-12T05:33:58.914Z,50.20
2018-01-12T05:34:58.961Z,55.40
2018-01-12T05:35:58.946Z,51.80
2018-01-12T05:36:58.968Z,49.90
2018-01-12T05:37:58.981Z,49.60
2018-01-12T05:38:58.999Z,50.20
2018-01-12T05:39:59.012Z,47.40
2018-01-12T05:40:59.032Z,46.50
2018-01-12T05:41:59.046Z,45.80
2018-01-12T05:42:59.063Z,48.90
2018-01-12T05:43:59.080Z,50.20
2018-01-12T05:44:59.096Z,54.90
2018-01-12T05:45:59.113Z,57.60
2018-01-12T05:46:59.128Z,64.90
2018-01-12T05:47:59.145Z,55.30
2018-01-12T05:48:59.166Z,58.50
2018-01-12T05:49:59.185Z,59.90
2018-01-12T05:50:59.198Z,62.00
2018-01-12T05:51:59.214Z,95.90
2018-01-12T05:52:59.226Z,88.70
2018-01-12T05:53:59.247Z,73.20
2018-01-12T05:54:59.261Z,64.70
2018-01-12T05:55:59.277Z,53.90
2018-01-12T05:56:59.295Z,58.80
2018-01-12T05:57:59.311Z,89.60
2018-01-12T05:58:59.335Z,93.40
2018-01-12T05:59:59.340Z,72.30
2018-01-12T06:00:59.360Z,65.00
2018-01-12T06:01:59.377Z,64.60
2018-01-12T06:02:59.391Z,71.40
2018-01-12T06:03:59.408Z,62.80
2018-01-12T06:04:59.427Z,69.90
2018-01-12T06:05:59.437Z,64.60
2018-01-12T06:06:59.457Z,130.20
2018-01-12T06:07:59.477Z,95.70
2018-01-12T06:08:59.491Z,107.20
2018-01-12T06:09:59.509Z,119.40
2018-01-12T06:10:59.524Z,81.50
2018-01-12T06:11:59.539Z,66.30
2018-01-12T06:12:59.557Z,83.50
2018-01-12T06:13:59.577Z,82.30
2018-01-12T06:14:59.592Z,80.30
2018-01-12T06:15:59.605Z,66.10
2018-01-12T06:16:59.665Z,67.30
2018-01-12T06:17:59.637Z,63.60
2018-01-12T06:18:59.650Z,63.40
2018-01-12T06:19:59.670Z,59.50
2018-01-12T06:20:59.689Z,52.60
2018-01-12T06:21:59.701Z,57.50
2018-01-12T06:22:59.725Z,56.30
2018-01-12T06:23:59.746Z,57.30
2018-01-12T06:24:59.767Z,54.70
2018-01-12T06:25:59.779Z,54.60
2018-01-12T06:26:59.794Z,57.70
2018-01-12T06:27:59.821Z,58.70
2018-01-12T06:28:59.825Z,68.60
2018-01-12T06:29:59.836Z,61.00
2018-01-12T06:30:59.856Z,58.90
2018-01-12T06:31:59.868Z,71.20
2018-01-12T06:32:59.886Z,64.00
2018-01-12T06:33:59.921Z,84.90
2018-01-12T06:34:59.913Z,81.60
2018-01-12T06:35:59.926Z,89.50
2018-01-12T06:36:59.947Z,79.90
2018-01-12T06:37:59.967Z,77.40
2018-01-12T06:38:59.986Z,77.10
2018-01-12T06:39:59.998Z,64.90
2018-01-12T06:41:00.031Z,62.50
2018-01-12T06:42:00.040Z,66.50
2018-01-12T06:43:00.059Z,66.10
2018-01-12T06:44:00.075Z,81.10
2018-01-12T06:45:00.081Z,62.20
2018-01-12T06:46:00.098Z,74.70
2018-01-12T06:47:00.114Z,97.00
2018-01-12T06:48:00.127Z,81.30
2018-01-12T06:49:00.149Z,78.30
2018-01-12T06:50:00.179Z,78.50
2018-01-12T06:51:00.184Z,78.20
2018-01-12T06:52:00.196Z,80.70
2018-01-12T06:53:00.212Z,70.20
2018-01-12T06:54:00.229Z,63.40
2018-01-12T06:55:00.252Z,61.10
2018-01-12T06:56:00.264Z,57.50
2018-01-12T06:57:00.282Z,58.60
2018-01-12T06:58:00.299Z,58.00
2018-01-12T06:59:00.319Z,58.90
2018-01-12T07:00:00.333Z,61.30
2018-01-12T07:01:00.342Z,57.10
2018-01-12T07:02:00.374Z,61.50
2018-01-12T07:03:01.081Z,61.60
2018-01-12T07:04:00.403Z,56.30
2018-01-12T07:05:00.421Z,54.90
2018-01-12T07:06:00.442Z,57.90
2018-01-12T07:07:00.446Z,60.10
2018-01-12T07:08:00.481Z,58.60
2018-01-12T07:09:00.479Z,59.40
2018-01-12T07:10:00.526Z,55.80
2018-01-12T07:11:00.510Z,58.80
2018-01-12T07:12:00.550Z,56.70
2018-01-12T07:13:00.543Z,57.90
2018-01-12T07:14:00.561Z,55.60
2018-01-12T07:15:00.583Z,54.70
2018-01-12T07:16:00.595Z,53.80
2018-01-12T07:17:00.604Z,49.40
2018-01-12T07:18:00.637Z,56.60
2018-01-12T07:19:00.651Z,53.20
2018-01-12T07:20:00.655Z,52.60
2018-01-12T07:21:00.689Z,55.10
2018-01-12T07:22:00.689Z,51.30
2018-01-12T07:23:00.714Z,56.10
2018-01-12T07:24:00.725Z,55.10
2018-01-12T07:25:00.742Z,54.80
2018-01-12T07:26:00.752Z,55.50
2018-01-12T07:27:00.775Z,50.30
2018-01-12T07:28:00.784Z,53.40
2018-01-12T07:29:00.805Z,53.90
2018-01-12T07:30:00.816Z,57.60
2018-01-12T07:31:00.833Z,58.40
2018-01-12T07:32:00.845Z,60.40
2018-01-12T07:33:00.897Z,61.20
2018-01-12T07:34:00.889Z,63.60
2018-01-12T07:35:00.910Z,63.40
2018-01-12T07:36:00.921Z,60.50
2018-01-12T07:37:00.945Z,61.90
2018-01-12T07:38:00.957Z,58.50
2018-01-12T07:39:00.970Z,66.30
2018-01-12T07:40:00.981Z,60.20
2018-01-12T07:41:01.011Z,60.20
2018-01-12T07:42:01.019Z,62.60
2018-01-12T07:43:01.038Z,67.00
2018-01-12T07:44:01.043Z,61.70
2018-01-12T07:45:01.066Z,59.70
2018-01-12T07:46:01.085Z,59.50
2018-01-12T07:47:01.099Z,66.20
2018-01-12T07:48:01.118Z,67.70
2018-01-12T07:49:01.134Z,65.70
2018-01-12T07:50:01.163Z,72.80
2018-01-12T07:51:01.161Z,67.60
2018-01-12T07:52:01.181Z,67.50
2018-01-12T07:53:01.200Z,70.30
2018-01-12T07:54:01.215Z,71.60
2018-01-12T07:55:01.240Z,70.70
2018-01-12T07:56:01.258Z,65.70
2018-01-12T07:57:01.265Z,68.50
2018-01-12T07:58:01.280Z,72.70
2018-01-12T07:59:01.301Z,94.00
2018-01-12T08:00:01.317Z,68.10
2018-01-12T08:01:01.331Z,71.80
2018-01-12T08:02:01.350Z,71.30
2018-01-12T08:03:01.366Z,69.60
2018-01-12T08:04:01.380Z,77.20
2018-01-12T08:05:01.399Z,71.00
2018-01-12T08:06:01.416Z,94.20
2018-01-12T08:07:01.428Z,79.40
2018-01-12T08:08:01.498Z,68.70
2018-01-12T08:09:01.483Z,69.30
2018-01-12T08:10:01.483Z,73.70
2018-01-12T08:11:01.500Z,74.90
2018-01-12T08:12:01.517Z,66.70
2018-01-12T08:13:01.528Z,71.00
2018-01-12T08:14:01.541Z,65.60
2018-01-12T08:15:01.571Z,68.20
2018-01-12T08:16:01.578Z,64.50
2018-01-12T08:17:01.598Z,66.50
2018-01-12T08:18:01.621Z,60.10
2018-01-12T08:19:01.625Z,58.40
2018-01-12T08:20:01.646Z,56.40
2018-01-12T08:21:01.660Z,53.30
2018-01-12T08:22:01.683Z,59.00
2018-01-12T08:23:01.696Z,55.60
2018-01-12T08:24:01.714Z,55.80
2018-01-12T08:25:01.742Z,57.80
2018-01-12T08:26:01.741Z,53.50
2018-01-12T08:27:01.759Z,58.00
2018-01-12T08:28:01.777Z,55.80
2018-01-12T08:29:01.796Z,59.50
2018-01-12T08:30:01.816Z,58.10
2018-01-12T08:31:01.839Z,60.00
2018-01-12T08:32:01.848Z,66.00
2018-01-12T08:33:01.858Z,68.50
2018-01-12T08:34:01.877Z,68.80
2018-01-12T08:35:01.893Z,63.30
2018-01-12T08:36:01.916Z,67.80
2018-01-12T08:37:01.933Z,61.30
2018-01-12T08:38:01.940Z,65.00
2018-01-12T08:39:01.957Z,65.80
2018-01-12T08:40:01.984Z,67.40
2018-01-12T08:41:01.992Z,64.70
2018-01-12T08:42:02.016Z,64.70
2018-01-12T08:43:02.031Z,67.90
2018-01-12T08:44:02.041Z,67.70
2018-01-12T08:45:02.062Z,86.20
2018-01-12T08:46:02.071Z,67.30
2018-01-12T08:47:02.090Z,69.20
2018-01-12T08:48:02.109Z,74.50
2018-01-12T08:49:02.130Z,77.30
2018-01-12T08:50:02.142Z,72.20
2018-01-12T08:51:02.160Z,71.80
2018-01-12T08:52:02.174Z,71.10
2018-01-12T08:53:02.192Z,71.10
2018-01-12T08:54:02.204Z,75.70
2018-01-12T08:55:02.239Z,71.50
2018-01-12T08:56:02.239Z,67.80
2018-01-12T08:57:02.257Z,68.10
2018-01-12T08:58:02.279Z,72.60
2018-01-12T08:59:02.307Z,65.80
2018-01-12T09:00:02.308Z,74.20
2018-01-12T09:01:02.340Z,72.60
2018-01-12T09:02:02.354Z,71.00
2018-01-12T09:03:02.365Z,71.00
2018-01-12T09:04:02.371Z,69.00
2018-01-12T09:05:02.395Z,68.60
2018-01-12T09:06:02.415Z,68.30
2018-01-12T09:07:02.431Z,65.80
2018-01-12T09:08:02.443Z,64.90
2018-01-12T09:09:02.461Z,63.10
2018-01-12T09:10:02.488Z,72.10
2018-01-12T09:11:02.534Z,74.20
2018-01-12T09:12:02.557Z,69.60
2018-01-12T09:13:02.534Z,70.70
2018-01-12T09:14:02.553Z,65.10
2018-01-12T09:15:02.571Z,67.70
2018-01-12T09:16:02.588Z,66.60
2018-01-12T09:17:02.610Z,71.90
2018-01-12T09:18:02.610Z,67.90
2018-01-12T09:19:02.632Z,64.90
2018-01-12T09:20:02.668Z,64.90
2018-01-12T09:21:02.673Z,65.60
2018-01-12T09:22:02.701Z,68.90
2018-01-12T09:23:02.704Z,68.00
2018-01-12T09:24:02.734Z,68.50
2018-01-12T09:25:02.731Z,66.20
2018-01-12T09:26:02.755Z,69.30
2018-01-12T09:27:02.784Z,68.50
2018-01-12T09:28:02.831Z,66.10
2018-01-12T09:29:02.839Z,67.90
2018-01-12T09:30:02.816Z,70.10
2018-01-12T09:31:02.834Z,69.20
2018-01-12T09:32:02.852Z,69.40
2018-01-12T09:33:02.872Z,73.10
2018-01-12T09:34:02.885Z,69.40
2018-01-12T09:35:02.896Z,67.60
2018-01-12T09:36:02.917Z,68.20
2018-01-12T09:37:02.983Z,69.10
2018-01-12T09:38:02.988Z,67.70
2018-01-12T09:39:03.013Z,67.20
2018-01-12T09:40:03.036Z,66.50
2018-01-12T09:41:03.040Z,61.30
2018-01-12T09:42:03.055Z,68.20
2018-01-12T09:43:03.076Z,69.80
2018-01-12T09:44:03.092Z,71.50
2018-01-12T09:45:05.090Z,71.20
2018-01-12T09:46:03.099Z,69.80
2018-01-12T09:47:03.147Z,72.90
2018-01-12T09:48:03.175Z,67.50
2018-01-12T09:49:03.166Z,66.00
2018-01-12T09:50:03.153Z,70.20
2018-01-12T09:51:03.178Z,68.30
2018-01-12T09:52:03.189Z,68.20
2018-01-12T09:53:03.209Z,68.30
2018-01-12T09:54:03.217Z,69.20
2018-01-12T09:55:03.241Z,65.50
2018-01-12T09:56:03.257Z,65.80
2018-01-12T09:57:03.274Z,69.80
2018-01-12T09:58:03.295Z,73.30
2018-01-12T09:59:03.338Z,66.20
2018-01-12T10:00:03.334Z,67.70
2018-01-12T10:01:03.358Z,67.20
2018-01-12T10:02:03.368Z,65.90
2018-01-12T10:03:03.383Z,71.90
2018-01-12T10:04:03.400Z,65.50
2018-01-12T10:05:03.416Z,67.30
2018-01-12T10:06:03.446Z,65.60
2018-01-12T10:07:03.452Z,63.50
2018-01-12T10:08:03.475Z,64.10
2018-01-12T10:09:03.493Z,65.90
2018-01-12T10:10:03.501Z,63.50
2018-01-12T10:11:03.520Z,63.70
2018-01-12T10:12:03.536Z,65.20
2018-01-12T10:13:03.552Z,65.90
2018-01-12T10:14:03.607Z,65.00
2018-01-12T10:15:03.603Z,64.90
2018-01-12T10:16:03.606Z,69.50
2018-01-12T10:17:03.616Z,66.50
2018-01-12T10:18:03.647Z,69.50
2018-01-12T10:19:03.656Z,64.70
2018-01-12T10:20:03.677Z,70.50
2018-01-12T10:21:03.720Z,69.20
2018-01-12T10:22:03.708Z,69.90
2018-01-12T10:23:03.710Z,69.50
2018-01-12T10:24:03.779Z,68.80
2018-01-12T10:25:03.825Z,64.70
2018-01-12T10:26:03.807Z,64.40
2018-01-12T10:27:03.789Z,62.70
2018-01-12T10:28:03.813Z,64.00
2018-01-12T10:29:03.818Z,63.10
2018-01-12T10:30:03.834Z,65.70
2018-01-12T10:31:03.850Z,65.70
2018-01-12T10:32:03.866Z,62.40
2018-01-12T10:33:03.890Z,65.10
2018-01-12T10:34:03.909Z,68.00
2018-01-12T10:35:03.923Z,67.90
2018-01-12T10:36:03.939Z,62.60
2018-01-12T10:37:03.963Z,61.80
2018-01-12T10:38:03.970Z,57.60
2018-01-12T10:39:03.989Z,62.00
2018-01-12T10:40:04.001Z,62.10
2018-01-12T10:41:04.033Z,61.60
2018-01-12T10:42:04.044Z,62.80
2018-01-12T10:43:04.058Z,60.30
2018-01-12T10:44:04.079Z,63.00
2018-01-12T10:45:04.097Z,66.10
2018-01-12T10:46:04.136Z,62.80
2018-01-12T10:47:04.125Z,66.80
2018-01-12T10:48:04.153Z,64.90
2018-01-12T10:49:04.173Z,64.50
2018-01-12T10:50:04.181Z,66.70
2018-01-12T10:51:04.196Z,68.60
2018-01-12T10:52:04.211Z,69.30
2018-01-12T10:53:04.239Z,70.00
2018-01-12T10:54:04.245Z,70.00
2018-01-12T10:55:04.258Z,68.00
2018-01-12T10:56:04.283Z,67.40
2018-01-12T10:57:04.291Z,62.90
2018-01-12T10:58:04.326Z,68.30
2018-01-12T10:59:04.326Z,69.40
2018-01-12T11:00:04.350Z,70.70
2018-01-12T11:01:04.369Z,70.80
2018-01-12T11:02:04.374Z,70.80
2018-01-12T11:03:04.407Z,66.20
2018-01-12T11:04:04.415Z,63.30
2018-01-12T11:05:04.434Z,65.10
2018-01-12T11:06:04.448Z,65.00
2018-01-12T11:07:04.460Z,63.10
2018-01-12T11:08:04.474Z,64.00
2018-01-12T11:09:04.500Z,67.90
2018-01-12T11:10:04.505Z,65.00
2018-01-12T11:11:04.534Z,63.70
2018-01-12T11:12:04.544Z,65.60
2018-01-12T11:13:04.566Z,69.00
2018-01-12T11:14:04.577Z,68.40
2018-01-12T11:15:04.597Z,70.40
2018-01-12T11:16:04.615Z,66.80
2018-01-12T11:17:04.627Z,69.00
2018-01-12T11:18:04.642Z,71.90
2018-01-12T11:19:04.667Z,68.20
2018-01-12T11:20:04.976Z,67.00
2018-01-12T11:21:04.703Z,65.80
2018-01-12T11:22:04.709Z,68.20
2018-01-12T11:23:04.731Z,66.10
2018-01-12T11:24:04.752Z,64.80
2018-01-12T11:25:04.773Z,64.10
2018-01-12T11:26:04.784Z,66.10
2018-01-12T11:27:04.798Z,68.60
2018-01-12T11:28:04.817Z,65.40
2018-01-12T11:29:04.829Z,65.70
2018-01-12T11:30:04.843Z,66.20
2018-01-12T11:31:04.872Z,65.90
2018-01-12T11:32:04.879Z,67.60
2018-01-12T11:33:04.895Z,65.90
2018-01-12T11:34:04.909Z,66.50
2018-01-12T11:35:04.932Z,68.10
2018-01-12T11:36:04.955Z,64.50
2018-01-12T11:37:04.964Z,68.60
2018-01-12T11:38:04.984Z,65.70
2018-01-12T11:39:05.007Z,65.00
2018-01-12T11:40:05.023Z,61.40
2018-01-12T11:41:05.036Z,65.80
2018-01-12T11:42:05.050Z,68.20
2018-01-12T11:43:05.068Z,64.40
2018-01-12T11:44:05.083Z,67.60
2018-01-12T11:45:05.131Z,66.40
2018-01-12T11:46:05.117Z,67.70
2018-01-12T11:47:05.128Z,67.20
2018-01-12T11:48:05.156Z,66.90
2018-01-12T11:49:05.231Z,67.70
2018-01-12T11:50:05.181Z,64.60
2018-01-12T11:51:05.201Z,64.50
2018-01-12T11:52:05.212Z,66.70
2018-01-12T11:53:05.229Z,64.00
2018-01-12T11:54:05.242Z,68.00
2018-01-12T11:55:05.261Z,62.30
2018-01-12T11:56:05.280Z,61.20
2018-01-12T11:57:05.312Z,62.70
2018-01-12T11:58:05.314Z,65.70
2018-01-12T11:59:05.328Z,61.50
2018-01-12T12:00:05.342Z,60.20
2018-01-12T12:01:05.374Z,57.40
2018-01-12T12:02:05.381Z,57.70
2018-01-12T12:03:05.402Z,60.60
2018-01-12T12:04:05.415Z,61.90
2018-01-12T12:05:05.435Z,65.20
2018-01-12T12:06:05.455Z,62.20
2018-01-12T12:07:05.468Z,61.30
2018-01-12T12:08:05.486Z,60.80
2018-01-12T12:09:05.516Z,59.90
2018-01-12T12:10:05.521Z,62.90
2018-01-12T12:11:05.529Z,63.50
2018-01-12T12:12:05.559Z,64.10
2018-01-12T12:13:05.564Z,62.10
2018-01-12T12:14:05.590Z,62.40
2018-01-12T12:15:05.605Z,61.70
2018-01-12T12:16:05.664Z,59.50
2018-01-12T12:17:05.642Z,61.40
2018-01-12T12:18:05.655Z,60.60
2018-01-12T12:19:05.685Z,62.20
2018-01-12T12:20:05.684Z,60.50
2018-01-12T12:21:05.705Z,61.10
2018-01-12T12:22:05.723Z,59.80
2018-01-12T12:23:05.745Z,61.10
2018-01-12T12:24:05.750Z,59.50
2018-01-12T12:25:05.780Z,62.70
2018-01-12T12:26:05.788Z,63.60
2018-01-12T12:27:05.807Z,64.10
2018-01-12T12:28:05.825Z,71.80
2018-01-12T12:29:05.839Z,68.30
2018-01-12T12:30:05.861Z,66.20
2018-01-12T12:31:05.870Z,67.70
2018-01-12T12:32:05.892Z,69.50
2018-01-12T12:33:05.918Z,70.30
2018-01-12T12:34:05.936Z,70.70
2018-01-12T12:35:05.945Z,69.70
2018-01-12T12:36:05.969Z,73.60
2018-01-12T12:37:05.980Z,65.30
2018-01-12T12:38:06.011Z,68.00
2018-01-12T12:39:06.011Z,69.40
2018-01-12T12:40:06.030Z,77.10
2018-01-12T12:41:06.050Z,72.00
2018-01-12T12:42:06.064Z,79.00
2018-01-12T12:43:06.082Z,77.90
2018-01-12T12:44:06.109Z,80.10
2018-01-12T12:45:06.127Z,80.90
2018-01-12T12:46:06.140Z,74.40
2018-01-12T12:47:06.161Z,72.50
2018-01-12T12:48:06.176Z,90.30
2018-01-12T12:49:06.189Z,94.50
2018-01-12T12:50:06.204Z,94.30
2018-01-12T12:51:06.221Z,88.50
2018-01-12T12:52:06.236Z,90.00